< < Back
Terminal Aerodrome Forecast


Current Version              Previous Versions:   1  2  3  4  5  6  7  8  9  

Terminal Aerodrome Forecast

926
FTUS44 KBMX 152200 AAB
TAFMGM
TAF AMD
KMGM 152243Z 1523/1618 03007KT 4SM SHRA VCTS BKN040CB
      TEMPO 1523/1601 2SM TSRA BKN030CB
     FM160200 00000KT P6SM BKN100
     FM160800 00000KT 4SM BR SCT015
     FM161400 35005KT P6SM SCT020=



Latest METAR

706
SAUS80 KWBC 160000
MTRMGM
METAR KMGM 152353Z 02007KT 10SM TS FEW060 OVC100 26/22 A3008 RMK AO2 LTG
DSNT S RAB2256E51 SLP183 P0012 60012 T02560217 10333 20256
51011


USA.gov is the U.S. government's official web portal to all federal, state and local government web resources and services.